createdAt,value
2017-07-09T00:00:27.965Z,1016
2017-07-09T00:01:27.289Z,1016
2017-07-09T00:02:26.683Z,1016
2017-07-09T00:03:26.033Z,1016
2017-07-09T00:04:25.597Z,1015.9
2017-07-09T00:05:24.648Z,1016
2017-07-09T00:06:24.222Z,1016
2017-07-09T00:07:23.407Z,1016
2017-07-09T00:08:22.970Z,1016
2017-07-09T00:09:22.039Z,1016
2017-07-09T00:10:21.625Z,1015.9
2017-07-09T00:11:20.835Z,1016
2017-07-09T00:12:20.038Z,1016
2017-07-09T00:13:19.234Z,1016
2017-07-09T00:14:18.814Z,1015.9
2017-07-09T00:15:18.147Z,1015.9
2017-07-09T00:16:17.342Z,1015.9
2017-07-09T00:17:17.032Z,1015.9
2017-07-09T00:18:16.212Z,1015.9
2017-07-09T00:19:15.288Z,1015.9
2017-07-09T00:20:14.779Z,1015.9
2017-07-09T00:21:14.363Z,1015.9
2017-07-09T00:22:13.300Z,1015.9
2017-07-09T00:23:12.745Z,1016
2017-07-09T00:24:12.317Z,1015.9
2017-07-09T00:25:11.643Z,1015.9
2017-07-09T00:26:11.081Z,1015.9
2017-07-09T00:27:10.347Z,1015.9
2017-07-09T00:28:09.788Z,1015.9
2017-07-09T00:29:08.876Z,1015.9
2017-07-09T00:30:08.320Z,1015.9
2017-07-09T00:31:07.643Z,1015.9
2017-07-09T00:32:06.717Z,1015.9
2017-07-09T00:33:06.405Z,1015.9
2017-07-09T00:34:05.721Z,1015.9
2017-07-09T00:35:05.050Z,1015.9
2017-07-09T00:36:04.492Z,1016
2017-07-09T00:37:03.684Z,1016
2017-07-09T00:38:03.128Z,1016
2017-07-09T00:39:02.323Z,1016.1
2017-07-09T00:40:01.755Z,1016
2017-07-09T00:41:01.142Z,1016.1
2017-07-09T00:42:00.217Z,1016.1
2017-07-09T00:42:59.493Z,1016.1
2017-07-09T00:43:59.196Z,1016
2017-07-09T00:44:58.142Z,1016.1
2017-07-09T00:45:57.714Z,1016
2017-07-09T00:46:57.281Z,1016.1
2017-07-09T00:47:56.357Z,1016.1
2017-07-09T00:48:55.929Z,1016.1
2017-07-09T00:49:54.985Z,1016.1
2017-07-09T00:50:54.498Z,1016.1
2017-07-09T00:51:53.692Z,1016.1
2017-07-09T00:52:53.269Z,1016.1
2017-07-09T00:53:23.773Z,1016.1
2017-07-09T00:54:51.779Z,1016.1
2017-07-09T00:55:51.230Z,1016
2017-07-09T00:56:50.423Z,1016.1
2017-07-09T00:57:49.859Z,1016
2017-07-09T00:58:49.169Z,1016
2017-07-09T00:59:48.555Z,1016
2017-07-09T01:00:48.001Z,1016
2017-07-09T01:01:46.946Z,1016
2017-07-09T01:02:46.402Z,1016
2017-07-09T01:03:45.729Z,1015.9
2017-07-09T01:04:45.420Z,1015.9
2017-07-09T01:05:44.615Z,1015.9
2017-07-09T01:06:43.813Z,1015.9
2017-07-09T01:07:43.452Z,1015.9
2017-07-09T01:08:42.516Z,1015.9
2017-07-09T01:09:41.704Z,1015.9
2017-07-09T01:10:41.269Z,1015.9
2017-07-09T01:11:40.717Z,1015.9
2017-07-09T01:12:40.155Z,1015.9
2017-07-09T01:13:39.229Z,1015.8
2017-07-09T01:14:38.677Z,1015.8
2017-07-09T01:15:38.119Z,1015.8
2017-07-09T01:16:37.311Z,1015.7
2017-07-09T01:17:36.630Z,1015.7
2017-07-09T01:18:36.212Z,1015.7
2017-07-09T01:19:35.413Z,1015.7
2017-07-09T01:20:34.615Z,1015.8
2017-07-09T01:21:34.056Z,1015.7
2017-07-09T01:22:33.256Z,1015.7
2017-07-09T01:23:32.831Z,1015.8
2017-07-09T01:24:32.138Z,1015.7
2017-07-09T01:25:31.640Z,1015.7
2017-07-09T01:26:30.717Z,1015.7
2017-07-09T01:27:30.045Z,1015.8
2017-07-09T01:28:29.618Z,1015.8
2017-07-09T01:29:28.561Z,1015.8
2017-07-09T01:30:27.897Z,1015.8
2017-07-09T01:31:27.360Z,1015.8
2017-07-09T01:31:57.736Z,1015.8
2017-07-09T01:32:28.113Z,1015.8
2017-07-09T01:33:26.047Z,1015.8
2017-07-09T01:34:25.245Z,1015.8
2017-07-09T01:35:24.691Z,1015.8
2017-07-09T01:37:23.408Z,1015.8
2017-07-09T01:38:22.987Z,1015.8
2017-07-09T01:39:22.195Z,1015.8
2017-07-09T01:40:21.766Z,1015.8
2017-07-09T01:41:20.821Z,1015.9
2017-07-09T01:42:20.401Z,1015.9
2017-07-09T01:43:19.590Z,1015.9
2017-07-09T01:44:18.916Z,1015.9
2017-07-09T01:45:18.236Z,1015.9
2017-07-09T01:46:17.678Z,1015.8
2017-07-09T01:47:16.754Z,1015.8
2017-07-09T01:48:16.443Z,1015.9
2017-07-09T01:49:15.751Z,1015.8
2017-07-09T01:50:14.934Z,1015.9
2017-07-09T01:51:14.254Z,1015.9
2017-07-09T01:52:13.453Z,1016
2017-07-09T01:53:12.905Z,1016
2017-07-09T01:54:12.523Z,1016
2017-07-09T01:55:11.475Z,1016
2017-07-09T01:57:10.435Z,1016
2017-07-09T01:58:09.514Z,1016
2017-07-09T01:59:08.841Z,1016
2017-07-09T02:00:08.413Z,1016
2017-07-09T02:01:07.608Z,1016
2017-07-09T02:02:06.922Z,1016
2017-07-09T02:03:06.625Z,1016
2017-07-09T02:03:36.888Z,1016
2017-07-09T02:05:05.155Z,1016
2017-07-09T02:06:04.354Z,1016
2017-07-09T02:07:03.822Z,1016
2017-07-09T02:08:03.278Z,1016
2017-07-09T02:09:02.352Z,1015.9
2017-07-09T02:10:01.678Z,1015.9
2017-07-09T02:11:00.979Z,1015.9
2017-07-09T02:12:00.543Z,1015.9
2017-07-09T02:12:59.606Z,1015.9
2017-07-09T02:13:59.190Z,1015.9
2017-07-09T02:14:58.255Z,1015.8
2017-07-09T02:15:57.704Z,1015.8
2017-07-09T02:16:57.402Z,1015.8
2017-07-09T02:17:56.464Z,1015.8
2017-07-09T02:18:56.043Z,1015.8
2017-07-09T02:19:55.115Z,1015.8
2017-07-09T02:20:54.440Z,1015.8
2017-07-09T02:21:54.005Z,1015.8
2017-07-09T02:22:53.011Z,1015.8
2017-07-09T02:23:52.711Z,1015.8
2017-07-09T02:24:51.767Z,1015.8
2017-07-09T02:25:22.391Z,1015.8
2017-07-09T02:25:52.779Z,1015.8
2017-07-09T02:26:23.155Z,1015.8
2017-07-09T02:26:53.797Z,1015.8
2017-07-09T02:27:49.709Z,1015.8
2017-07-09T02:28:49.163Z,1015.8
2017-07-09T02:29:48.363Z,1015.8
2017-07-09T02:30:47.808Z,1015.9
2017-07-09T02:32:46.385Z,1015.9
2017-07-09T02:33:46.030Z,1015.9
2017-07-09T02:34:45.100Z,1015.9
2017-07-09T02:36:44.052Z,1016
2017-07-09T02:37:43.374Z,1016
2017-07-09T02:38:42.426Z,1016
2017-07-09T02:39:41.989Z,1016
2017-07-09T02:40:41.435Z,1016
2017-07-09T02:41:40.752Z,1016
2017-07-09T02:42:40.191Z,1016
2017-07-09T02:43:39.262Z,1016
2017-07-09T02:44:38.587Z,1016
2017-07-09T02:45:37.902Z,1016
2017-07-09T02:46:08.410Z,1016
2017-07-09T02:46:38.921Z,1016
2017-07-09T02:47:36.469Z,1016
2017-07-09T02:48:36.170Z,1016
2017-07-09T02:49:35.492Z,1016
2017-07-09T02:50:34.569Z,1016
2017-07-09T02:51:34.136Z,1016
2017-07-09T02:52:33.468Z,1016
2017-07-09T02:53:32.536Z,1016
2017-07-09T02:54:31.866Z,1016
2017-07-09T02:55:31.315Z,1016
2017-07-09T02:56:30.888Z,1016
2017-07-09T02:57:30.119Z,1016
2017-07-09T02:58:29.330Z,1015.9
2017-07-09T02:59:28.900Z,1015.9
2017-07-09T03:00:27.967Z,1015.9
2017-07-09T03:01:27.418Z,1015.9
2017-07-09T03:02:26.500Z,1015.9
2017-07-09T03:03:26.075Z,1015.9
2017-07-09T03:04:25.517Z,1015.9
2017-07-09T03:05:24.849Z,1016
2017-07-09T03:06:24.165Z,1016
2017-07-09T03:07:23.482Z,1016
2017-07-09T03:08:22.799Z,1015.9
2017-07-09T03:09:21.995Z,1015.9
2017-07-09T03:10:21.180Z,1016
2017-07-09T03:11:20.759Z,1015.9
2017-07-09T03:12:19.839Z,1015.9
2017-07-09T03:13:19.289Z,1015.9
2017-07-09T03:14:18.491Z,1016
2017-07-09T03:15:17.960Z,1015.9
2017-07-09T03:16:17.162Z,1016
2017-07-09T03:17:16.482Z,1016
2017-07-09T03:18:15.800Z,1016
2017-07-09T03:19:15.484Z,1016
2017-07-09T03:20:14.806Z,1016.1
2017-07-09T03:22:13.152Z,1016.1
2017-07-09T03:23:12.604Z,1016.1
2017-07-09T03:24:12.042Z,1016.1
2017-07-09T03:25:11.238Z,1016.1
2017-07-09T03:26:10.684Z,1016.1
2017-07-09T03:27:09.878Z,1016.1
2017-07-09T03:28:09.465Z,1016
2017-07-09T03:29:08.924Z,1016
2017-07-09T03:30:08.239Z,1016.1
2017-07-09T03:31:07.425Z,1016.1
2017-07-09T03:32:06.737Z,1016.1
2017-07-09T03:33:05.806Z,1016.1
2017-07-09T03:34:05.129Z,1016.1
2017-07-09T03:35:04.719Z,1016.1
2017-07-09T03:36:04.160Z,1016.1
2017-07-09T03:37:03.479Z,1016.1
2017-07-09T03:38:02.920Z,1016.1
2017-07-09T03:39:02.109Z,1016.1
2017-07-09T03:40:01.430Z,1016.1
2017-07-09T03:41:00.744Z,1016.1
2017-07-09T03:41:59.939Z,1016.1
2017-07-09T03:42:59.495Z,1016.1
2017-07-09T03:43:58.683Z,1016.1
2017-07-09T03:44:58.246Z,1016
2017-07-09T03:45:57.564Z,1016
2017-07-09T03:46:56.514Z,1016
2017-07-09T03:47:55.964Z,1016
2017-07-09T03:48:55.160Z,1016
2017-07-09T03:49:54.727Z,1016.1
2017-07-09T03:50:54.174Z,1016.1
2017-07-09T03:51:24.444Z,1016.1
2017-07-09T03:51:54.821Z,1016.1
2017-07-09T03:52:25.209Z,1016.1
2017-07-09T03:52:55.708Z,1016.1
2017-07-09T03:53:26.349Z,1016.1
2017-07-09T03:55:50.596Z,1016
2017-07-09T03:56:49.801Z,1016
2017-07-09T03:57:49.496Z,1015.9
2017-07-09T03:58:48.632Z,1015.9
2017-07-09T03:59:48.087Z,1015.9
2017-07-09T04:00:47.421Z,1015.9
2017-07-09T04:01:46.480Z,1015.9
2017-07-09T04:02:46.072Z,1015.9
2017-07-09T04:03:45.191Z,1015.8
2017-07-09T04:04:44.762Z,1015.8
2017-07-09T04:05:43.966Z,1015.8
2017-07-09T04:06:43.171Z,1015.8
2017-07-09T04:07:42.489Z,1015.9
2017-07-09T04:08:41.949Z,1015.9
2017-07-09T04:09:41.526Z,1015.9
2017-07-09T04:10:40.729Z,1015.9
2017-07-09T04:11:40.303Z,1015.8
2017-07-09T04:12:39.370Z,1015.8
2017-07-09T04:13:38.562Z,1015.8
2017-07-09T04:14:38.129Z,1015.8
2017-07-09T04:15:37.576Z,1015.9
2017-07-09T04:16:36.777Z,1015.8
2017-07-09T04:17:36.228Z,1015.8
2017-07-09T04:18:35.370Z,1015.8
2017-07-09T04:19:34.938Z,1015.8
2017-07-09T04:20:33.894Z,1015.9
2017-07-09T04:21:33.218Z,1015.8
2017-07-09T04:22:32.922Z,1015.8
2017-07-09T04:24:31.505Z,1015.7
2017-07-09T04:25:30.817Z,1015.8
2017-07-09T04:26:29.883Z,1015.7
2017-07-09T04:27:29.454Z,1015.7
2017-07-09T04:28:28.639Z,1015.7
2017-07-09T04:29:28.214Z,1015.7
2017-07-09T04:30:27.539Z,1015.7
2017-07-09T04:31:26.849Z,1015.7
2017-07-09T04:32:26.182Z,1015.7
2017-07-09T04:33:25.255Z,1015.7
2017-07-09T04:34:24.828Z,1015.7
2017-07-09T04:35:24.268Z,1015.7
2017-07-09T04:36:23.453Z,1015.7
2017-07-09T04:37:22.918Z,1015.7
2017-07-09T04:38:22.115Z,1015.7
2017-07-09T04:39:21.428Z,1015.8
2017-07-09T04:40:21.004Z,1015.8
2017-07-09T04:41:19.946Z,1015.8
2017-07-09T04:42:19.273Z,1015.8
2017-07-09T04:43:18.597Z,1015.8
2017-07-09T04:43:49.101Z,1015.8
2017-07-09T04:44:19.737Z,1015.8
2017-07-09T04:44:50.131Z,1015.8
2017-07-09T04:46:16.877Z,1015.8
2017-07-09T04:47:16.318Z,1015.8
2017-07-09T04:48:15.511Z,1015.8
2017-07-09T04:49:14.962Z,1015.8
2017-07-09T04:50:14.411Z,1015.8
2017-07-09T04:51:13.346Z,1015.8
2017-07-09T04:52:12.672Z,1015.8
2017-07-09T04:53:12.250Z,1015.8
2017-07-09T04:54:11.452Z,1015.8
2017-07-09T04:55:10.901Z,1015.8
2017-07-09T04:56:10.351Z,1015.8
2017-07-09T04:57:09.668Z,1015.8
2017-07-09T04:58:08.601Z,1015.8
2017-07-09T04:59:08.295Z,1015.7
2017-07-09T05:00:07.618Z,1015.7
2017-07-09T05:01:06.953Z,1015.7
2017-07-09T05:02:06.017Z,1015.7
2017-07-09T05:03:05.335Z,1015.7
2017-07-09T05:04:04.781Z,1015.8
2017-07-09T05:05:04.103Z,1015.7
2017-07-09T05:06:03.416Z,1015.8
2017-07-09T05:07:03.038Z,1015.8
2017-07-09T05:08:02.225Z,1015.8
2017-07-09T05:09:01.803Z,1015.8
2017-07-09T05:10:00.742Z,1015.7
2017-07-09T05:11:00.066Z,1015.7
2017-07-09T05:11:59.764Z,1015.7
2017-07-09T05:12:59.084Z,1015.8
2017-07-09T05:13:58.404Z,1015.6
2017-07-09T05:14:57.658Z,1015.7
2017-07-09T05:15:57.104Z,1015.7
2017-07-09T05:16:56.307Z,1015.7
2017-07-09T05:17:55.634Z,1015.7
2017-07-09T05:18:54.828Z,1015.7
2017-07-09T05:19:54.151Z,1015.7
2017-07-09T05:20:53.471Z,1015.7
2017-07-09T05:21:53.182Z,1015.7
2017-07-09T05:22:52.120Z,1015.6
2017-07-09T05:23:51.491Z,1015.7
2017-07-09T05:25:50.316Z,1015.7
2017-07-09T05:26:49.758Z,1015.7
2017-07-09T05:27:49.075Z,1015.7
2017-07-09T05:28:48.276Z,1015.7
2017-07-09T05:29:47.735Z,1015.7
2017-07-09T05:31:46.566Z,1015.7
2017-07-09T05:32:45.625Z,1015.8
2017-07-09T05:33:44.815Z,1015.7
2017-07-09T05:35:43.779Z,1015.7
2017-07-09T05:36:43.227Z,1015.7
2017-07-09T05:37:42.179Z,1015.7
2017-07-09T05:38:41.500Z,1015.7
2017-07-09T05:39:41.073Z,1015.7
2017-07-09T05:40:11.395Z,1015.7
2017-07-09T05:40:41.660Z,1015.8
2017-07-09T05:41:12.190Z,1015.8
2017-07-09T05:42:39.070Z,1015.8
2017-07-09T05:43:38.401Z,1015.8
2017-07-09T05:44:37.609Z,1015.8
2017-07-09T05:45:37.055Z,1015.8
2017-07-09T05:46:36.557Z,1015.8
2017-07-09T05:47:35.751Z,1015.8
2017-07-09T05:48:35.209Z,1015.7
2017-07-09T05:49:34.617Z,1015.8
2017-07-09T05:50:34.064Z,1015.8
2017-07-09T05:51:33.381Z,1015.8
2017-07-09T05:52:03.629Z,1015.8
2017-07-09T05:52:33.882Z,1015.9
2017-07-09T05:53:04.128Z,1015.9
2017-07-09T05:54:31.382Z,1015.8
2017-07-09T05:55:30.586Z,1015.9
2017-07-09T05:56:30.153Z,1015.8
2017-07-09T05:57:29.467Z,1015.9
2017-07-09T05:58:28.853Z,1015.8
2017-07-09T05:59:27.801Z,1015.8
2017-07-09T06:00:27.379Z,1015.8
2017-07-09T06:01:26.829Z,1015.8
2017-07-09T06:02:26.142Z,1015.9
2017-07-09T06:03:25.331Z,1015.8
2017-07-09T06:04:24.528Z,1015.8
2017-07-09T06:05:23.982Z,1015.9
2017-07-09T06:06:23.565Z,1015.8
2017-07-09T06:07:22.505Z,1015.8
2017-07-09T06:08:22.091Z,1016
2017-07-09T06:09:21.223Z,1015.9
2017-07-09T06:10:20.913Z,1015.9
2017-07-09T06:10:51.246Z,1015.9
2017-07-09T06:11:21.517Z,1016
2017-07-09T06:11:52.022Z,1016
2017-07-09T06:12:22.657Z,1015.9
2017-07-09T06:12:53.038Z,1015.9
2017-07-09T06:14:18.030Z,1016
2017-07-09T06:15:17.721Z,1016
2017-07-09T06:16:16.798Z,1016
2017-07-09T06:17:16.488Z,1016
2017-07-09T06:18:15.374Z,1016
2017-07-09T06:19:14.703Z,1016
2017-07-09T06:20:14.286Z,1015.9
2017-07-09T06:21:13.485Z,1016
2017-07-09T06:22:13.184Z,1016
2017-07-09T06:23:12.251Z,1016
2017-07-09T06:24:11.560Z,1015.9
2017-07-09T06:25:10.875Z,1015.9
2017-07-09T06:27:09.958Z,1015.8
2017-07-09T06:28:09.147Z,1015.9
2017-07-09T06:29:08.208Z,1015.8
2017-07-09T06:30:07.901Z,1015.9
2017-07-09T06:31:06.963Z,1015.9
2017-07-09T06:32:06.672Z,1015.9
2017-07-09T06:33:05.862Z,1015.8
2017-07-09T06:33:36.487Z,1015.8
2017-07-09T06:34:06.986Z,1015.8
2017-07-09T06:34:37.615Z,1015.8
2017-07-09T06:36:03.749Z,1015.7
2017-07-09T06:37:03.450Z,1015.7
2017-07-09T06:38:02.404Z,1015.8
2017-07-09T06:39:01.846Z,1015.8
2017-07-09T06:41:00.433Z,1015.8
2017-07-09T06:42:00.245Z,1015.8
2017-07-09T06:42:59.312Z,1015.9
2017-07-09T06:43:58.754Z,1015.9
2017-07-09T06:44:58.077Z,1015.9
2017-07-09T06:45:57.393Z,1016.1
2017-07-09T06:46:56.965Z,1015.9
2017-07-09T06:47:56.044Z,1015.9
2017-07-09T06:48:55.492Z,1016
2017-07-09T06:49:54.945Z,1015.9
2017-07-09T06:50:54.149Z,1016
2017-07-09T06:51:53.462Z,1016
2017-07-09T06:52:52.910Z,1016
2017-07-09T06:55:51.138Z,1016
2017-07-09T06:56:50.468Z,1015.9
2017-07-09T06:57:49.534Z,1016
2017-07-09T06:58:48.984Z,1016
2017-07-09T06:59:48.509Z,1016
2017-07-09T07:00:47.893Z,1016
2017-07-09T07:01:47.100Z,1015.9
2017-07-09T07:02:46.809Z,1015.9
2017-07-09T07:03:45.765Z,1015.9
2017-07-09T07:04:45.210Z,1016
2017-07-09T07:05:44.662Z,1015.9
2017-07-09T07:06:43.990Z,1015.9
2017-07-09T07:08:42.963Z,1015.9
2017-07-09T07:09:42.154Z,1015.9
2017-07-09T07:10:41.658Z,1015.9
2017-07-09T07:11:40.914Z,1015.9
2017-07-09T07:12:40.248Z,1015.9
2017-07-09T07:13:39.824Z,1015.9
2017-07-09T07:14:39.133Z,1015.9
2017-07-09T07:15:38.334Z,1015.8
2017-07-09T07:16:37.926Z,1015.8
2017-07-09T07:18:36.383Z,1015.9
2017-07-09T07:19:35.957Z,1015.9
2017-07-09T07:20:35.280Z,1015.8
2017-07-09T07:21:34.434Z,1015.8
2017-07-09T07:22:33.756Z,1015.8
2017-07-09T07:23:33.448Z,1015.8
2017-07-09T07:24:32.643Z,1015.8
2017-07-09T07:25:31.902Z,1016
2017-07-09T07:26:31.482Z,1015.8
2017-07-09T07:27:30.924Z,1015.8
2017-07-09T07:28:30.249Z,1015.7
2017-07-09T07:29:29.322Z,1015.7
2017-07-09T07:30:28.759Z,1015.8
2017-07-09T07:31:28.218Z,1015.7
2017-07-09T07:32:27.531Z,1015.7
2017-07-09T07:33:26.833Z,1015.7
2017-07-09T07:34:26.404Z,1015.7
2017-07-09T07:35:25.591Z,1015.7
2017-07-09T07:36:25.026Z,1015.7
2017-07-09T07:37:24.720Z,1015.7
2017-07-09T07:38:23.653Z,1015.8
2017-07-09T07:39:23.112Z,1015.7
2017-07-09T07:40:22.694Z,1015.8
2017-07-09T07:41:22.012Z,1015.7
2017-07-09T07:42:21.335Z,1015.7
2017-07-09T07:43:20.901Z,1015.7
2017-07-09T07:45:19.604Z,1015.8
2017-07-09T07:47:18.449Z,1015.8
2017-07-09T07:48:17.658Z,1015.8
2017-07-09T07:49:16.982Z,1015.9
2017-07-09T07:50:16.306Z,1015.8
2017-07-09T07:51:15.621Z,1015.8
2017-07-09T07:52:15.059Z,1015.9
2017-07-09T07:53:14.373Z,1015.8
2017-07-09T07:54:14.072Z,1015.8
2017-07-09T07:55:13.510Z,1015.8
2017-07-09T07:56:12.588Z,1015.8
2017-07-09T07:57:12.193Z,1015.8
2017-07-09T07:58:11.282Z,1015.8
2017-07-09T07:59:10.861Z,1015.8
2017-07-09T07:59:41.502Z,1015.8
2017-07-09T08:00:11.895Z,1015.7
2017-07-09T08:00:42.269Z,1015.7
2017-07-09T08:01:12.891Z,1015.7
2017-07-09T08:01:43.156Z,1015.7
2017-07-09T08:02:13.406Z,1015.8
2017-07-09T08:03:08.585Z,1015.8
2017-07-09T08:04:07.651Z,1015.8
2017-07-09T08:05:07.040Z,1015.8
2017-07-09T08:06:06.493Z,1015.9
2017-07-09T08:07:06.191Z,1015.9
2017-07-09T08:08:05.394Z,1015.8
2017-07-09T08:09:04.971Z,1015.8
2017-07-09T08:10:04.037Z,1015.9
2017-07-09T08:11:03.729Z,1015.8
2017-07-09T08:12:02.800Z,1015.8
2017-07-09T08:13:02.113Z,1015.8
2017-07-09T08:14:01.681Z,1015.8
2017-07-09T08:15:00.879Z,1015.8
2017-07-09T08:16:00.698Z,1015.8
2017-07-09T08:16:59.891Z,1015.8
2017-07-09T08:17:59.210Z,1015.9
2017-07-09T08:18:58.406Z,1015.9
2017-07-09T08:19:57.983Z,1015.9
2017-07-09T08:20:57.189Z,1015.9
2017-07-09T08:21:57.005Z,1015.9
2017-07-09T08:22:56.442Z,1015.9
2017-07-09T08:23:55.628Z,1015.9
2017-07-09T08:24:54.822Z,1015.9
2017-07-09T08:25:54.650Z,1015.9
2017-07-09T08:26:53.746Z,1015.9
2017-07-09T08:27:53.196Z,1015.9
2017-07-09T08:28:52.522Z,1015.9
2017-07-09T08:29:51.967Z,1016
2017-07-09T08:30:51.667Z,1015.9
2017-07-09T08:31:50.858Z,1015.8
2017-07-09T08:32:50.439Z,1015.8
2017-07-09T08:33:49.750Z,1015.7
2017-07-09T08:34:49.050Z,1015.7
2017-07-09T08:35:48.645Z,1015.7
2017-07-09T08:36:47.606Z,1015.8
2017-07-09T08:37:47.192Z,1015.8
2017-07-09T08:38:46.522Z,1015.7
2017-07-09T08:39:46.085Z,1015.7
2017-07-09T08:40:45.657Z,1015.7
2017-07-09T08:41:44.988Z,1015.7
2017-07-09T08:42:44.066Z,1015.7
2017-07-09T08:43:43.520Z,1015.8
2017-07-09T08:44:42.975Z,1015.7
2017-07-09T08:45:42.553Z,1015.7
2017-07-09T08:46:42.004Z,1015.7
2017-07-09T08:47:41.330Z,1015.6
2017-07-09T08:48:40.647Z,1015.6
2017-07-09T08:49:39.981Z,1015.7
2017-07-09T08:50:39.802Z,1015.7
2017-07-09T08:51:39.011Z,1015.7
2017-07-09T08:52:38.211Z,1015.6
2017-07-09T08:53:37.787Z,1015.7
2017-07-09T08:54:37.359Z,1015.6
2017-07-09T08:55:07.631Z,1015.6
2017-07-09T08:55:38.134Z,1015.6
2017-07-09T08:56:35.939Z,1015.7
2017-07-09T08:57:35.259Z,1015.7
2017-07-09T08:58:34.830Z,1015.5
2017-07-09T08:59:34.160Z,1015.6
2017-07-09T09:00:33.850Z,1015.6
2017-07-09T09:01:33.044Z,1015.6
2017-07-09T09:02:32.369Z,1015.6
2017-07-09T09:03:31.941Z,1015.6
2017-07-09T09:05:30.646Z,1015.7
2017-07-09T09:06:30.110Z,1015.7
2017-07-09T09:07:29.571Z,1015.6
2017-07-09T09:08:29.031Z,1015.7
2017-07-09T09:09:28.621Z,1015.6
2017-07-09T09:10:27.936Z,1015.6
2017-07-09T09:10:58.257Z,1015.6
2017-07-09T09:11:28.767Z,1015.6
2017-07-09T09:11:59.027Z,1015.6
2017-07-09T09:12:29.529Z,1015.6
2017-07-09T09:13:26.144Z,1015.6
2017-07-09T09:14:25.580Z,1015.6
2017-07-09T09:15:24.889Z,1015.6
2017-07-09T09:16:24.201Z,1015.6
2017-07-09T09:17:23.893Z,1015.6
2017-07-09T09:18:22.971Z,1015.6
2017-07-09T09:19:22.537Z,1015.6
2017-07-09T09:20:21.991Z,1015.6
2017-07-09T09:21:21.576Z,1015.5
2017-07-09T09:22:20.632Z,1015.6
2017-07-09T09:23:20.209Z,1015.5
2017-07-09T09:24:19.397Z,1015.6
2017-07-09T09:25:18.849Z,1015.6
2017-07-09T09:26:18.668Z,1015.5
2017-07-09T09:27:18.000Z,1015.5
2017-07-09T09:28:17.444Z,1015.5
2017-07-09T09:29:16.769Z,1015.4
2017-07-09T09:30:16.214Z,1015.4
2017-07-09T09:31:15.413Z,1015.3
2017-07-09T09:32:14.886Z,1015.4
2017-07-09T09:33:14.461Z,1015.4
2017-07-09T09:34:13.904Z,1015.4
2017-07-09T09:35:13.081Z,1015.4
2017-07-09T09:36:12.654Z,1015.4
2017-07-09T09:37:11.973Z,1015.4
2017-07-09T09:38:11.668Z,1015.5
2017-07-09T09:39:10.852Z,1015.4
2017-07-09T09:40:10.226Z,1015.4
2017-07-09T09:41:09.548Z,1015.3
2017-07-09T09:42:09.252Z,1015.4
2017-07-09T09:43:08.711Z,1015.5
2017-07-09T09:44:07.771Z,1015.4
2017-07-09T09:45:07.218Z,1015.3
2017-07-09T09:46:06.914Z,1015.3
2017-07-09T09:47:06.124Z,1015.4
2017-07-09T09:48:05.820Z,1015.4
2017-07-09T09:49:05.086Z,1015.3
2017-07-09T09:50:04.419Z,1015.3
2017-07-09T09:51:03.997Z,1015.3
2017-07-09T09:52:03.306Z,1015.3
2017-07-09T09:53:02.750Z,1015.4
2017-07-09T09:54:02.333Z,1015.3
2017-07-09T09:55:01.400Z,1015.3
2017-07-09T09:56:00.970Z,1015.3
2017-07-09T09:57:00.413Z,1015.3
2017-07-09T09:58:00.105Z,1015.3
2017-07-09T09:58:59.180Z,1015.3
2017-07-09T09:59:58.752Z,1015.4
2017-07-09T10:00:58.077Z,1015.4
2017-07-09T10:01:57.652Z,1015.3
2017-07-09T10:02:57.237Z,1015.3
2017-07-09T10:03:56.554Z,1015.3
2017-07-09T10:04:55.761Z,1015.4
2017-07-09T10:05:26.139Z,1015.4
2017-07-09T10:05:56.395Z,1015.3
2017-07-09T10:06:54.584Z,1015.3
2017-07-09T10:08:53.614Z,1015.3
2017-07-09T10:09:53.058Z,1015.3
2017-07-09T10:10:52.575Z,1015.3
2017-07-09T10:11:52.090Z,1015.2
2017-07-09T10:12:51.163Z,1015.3
2017-07-09T10:13:50.729Z,1015.3
2017-07-09T10:14:50.177Z,1015.3
2017-07-09T10:15:49.754Z,1015.3
2017-07-09T10:16:48.939Z,1015.3
2017-07-09T10:17:48.635Z,1015.4
2017-07-09T10:18:47.840Z,1015.3
2017-07-09T10:19:47.295Z,1015.2
2017-07-09T10:20:46.620Z,1015.3
2017-07-09T10:21:46.184Z,1015.3
2017-07-09T10:22:45.812Z,1015.3
2017-07-09T10:23:45.006Z,1015.3
2017-07-09T10:24:44.712Z,1015.3
2017-07-09T10:25:43.778Z,1015.3
2017-07-09T10:26:43.480Z,1015.3
2017-07-09T10:27:42.811Z,1015.3
2017-07-09T10:28:42.391Z,1015.2
2017-07-09T10:29:41.825Z,1015.2
2017-07-09T10:30:41.151Z,1015.1
2017-07-09T10:31:40.721Z,1015.2
2017-07-09T10:32:40.296Z,1015.1
2017-07-09T10:33:39.481Z,1015.1
2017-07-09T10:34:38.929Z,1015.1
2017-07-09T10:35:38.386Z,1015
2017-07-09T10:36:37.836Z,1015.1
2017-07-09T10:37:37.173Z,1015
2017-07-09T10:38:36.870Z,1015.1
2017-07-09T10:39:36.444Z,1015
2017-07-09T10:40:35.766Z,1015.1
2017-07-09T10:41:35.208Z,1015.1
2017-07-09T10:42:34.666Z,1015.1
2017-07-09T10:44:33.494Z,1015.1
2017-07-09T10:45:33.190Z,1015.1
2017-07-09T10:46:32.383Z,1015.1
2017-07-09T10:47:31.837Z,1015.1
2017-07-09T10:48:31.409Z,1015.1
2017-07-09T10:49:30.600Z,1015
2017-07-09T10:50:30.290Z,1015
2017-07-09T10:51:29.615Z,1015
2017-07-09T10:52:29.072Z,1014.9
2017-07-09T10:53:28.644Z,1015
2017-07-09T10:54:28.332Z,1014.9
2017-07-09T10:55:27.525Z,1015
2017-07-09T10:56:26.981Z,1014.9
2017-07-09T10:57:26.541Z,1014.9
2017-07-09T10:58:26.104Z,1014.8
2017-07-09T10:59:25.548Z,1014.9
2017-07-09T11:00:24.860Z,1014.9
2017-07-09T11:00:55.371Z,1014.9
2017-07-09T11:02:23.643Z,1015
2017-07-09T11:03:23.332Z,1014.9
2017-07-09T11:04:22.977Z,1014.9
2017-07-09T11:05:22.306Z,1014.9
2017-07-09T11:06:21.505Z,1014.9
2017-07-09T11:07:20.936Z,1014.8
2017-07-09T11:08:20.745Z,1014.7
2017-07-09T11:09:20.202Z,1014.6
2017-07-09T11:10:19.534Z,1014.5
2017-07-09T11:11:18.843Z,1014.5
2017-07-09T11:12:18.546Z,1014.6
2017-07-09T11:13:17.988Z,1014.7
2017-07-09T11:13:48.619Z,1014.7
2017-07-09T11:14:18.872Z,1014.6
2017-07-09T11:15:16.809Z,1014.6
2017-07-09T11:16:16.263Z,1014.5
2017-07-09T11:17:15.706Z,1014.6
2017-07-09T11:18:15.163Z,1014.6
2017-07-09T11:19:14.605Z,1014.6
2017-07-09T11:20:14.437Z,1014.6
2017-07-09T11:21:13.636Z,1014.5
2017-07-09T11:22:13.338Z,1014.5
2017-07-09T11:23:12.914Z,1014.5
2017-07-09T11:24:11.993Z,1014.6
2017-07-09T11:25:11.940Z,1014.6
2017-07-09T11:26:11.398Z,1014.6
2017-07-09T11:27:10.713Z,1014.6
2017-07-09T11:28:10.170Z,1014.6
2017-07-09T11:29:09.857Z,1014.6
2017-07-09T11:30:09.167Z,1014.5
2017-07-09T11:31:08.614Z,1014.6
2017-07-09T11:32:08.185Z,1014.6
2017-07-09T11:32:38.584Z,1014.6
2017-07-09T11:33:09.233Z,1014.6
2017-07-09T11:33:39.743Z,1014.6
2017-07-09T11:34:10.141Z,1014.5
2017-07-09T11:34:40.399Z,1014.5
2017-07-09T11:36:05.886Z,1014.6
2017-07-09T11:37:05.595Z,1014.5
2017-07-09T11:38:05.167Z,1014.5
2017-07-09T11:39:04.746Z,1014.5
2017-07-09T11:40:04.072Z,1014.4
2017-07-09T11:41:03.518Z,1014.4
2017-07-09T11:42:02.965Z,1014.5
2017-07-09T11:43:02.705Z,1014.4
2017-07-09T11:44:02.272Z,1014.5
2017-07-09T11:45:01.843Z,1014.5
2017-07-09T11:46:01.153Z,1014.5
2017-07-09T11:47:00.855Z,1014.4
2017-07-09T11:48:00.189Z,1014.4
2017-07-09T11:49:59.278Z,1014.4
2017-07-09T11:50:58.722Z,1014.4
2017-07-09T11:51:58.418Z,1014.3
2017-07-09T11:52:57.607Z,1014.3
2017-07-09T11:53:57.303Z,1014.3
2017-07-09T11:54:56.745Z,1014.3
2017-07-09T11:55:56.218Z,1014.3
2017-07-09T11:56:55.672Z,1014.4
2017-07-09T11:57:55.124Z,1014.4
2017-07-09T11:58:54.824Z,1014.3
2017-07-09T11:59:54.402Z,1014.3
2017-07-09T12:00:53.853Z,1014.3
2017-07-09T12:01:53.302Z,1014.4
2017-07-09T12:02:53.012Z,1014.4
2017-07-09T12:03:52.581Z,1014.4
2017-07-09T12:04:51.791Z,1014.4
2017-07-09T12:05:51.365Z,1014.4
2017-07-09T12:06:51.197Z,1014.4
2017-07-09T12:07:50.645Z,1014.3
2017-07-09T12:08:50.040Z,1014.3
2017-07-09T12:09:49.673Z,1014.3
2017-07-09T12:10:49.019Z,1014.3
2017-07-09T12:11:48.465Z,1014.3
2017-07-09T12:12:48.295Z,1014.3
2017-07-09T12:13:47.492Z,1014.3
2017-07-09T12:14:47.075Z,1014.3
2017-07-09T12:15:46.912Z,1014.3
2017-07-09T12:16:46.244Z,1014.2
2017-07-09T12:18:45.270Z,1014.3
2017-07-09T12:19:44.709Z,1014.3
2017-07-09T12:20:44.661Z,1014.2
2017-07-09T12:21:43.868Z,1014.2
2017-07-09T12:22:43.446Z,1014.3
2017-07-09T12:23:43.145Z,1014.2
2017-07-09T12:24:42.709Z,1014.2
2017-07-09T12:25:42.162Z,1014.2
2017-07-09T12:26:41.608Z,1014.2
2017-07-09T12:27:11.855Z,1014.2
2017-07-09T12:27:42.357Z,1014.2